Time;durP1;ratioP1;P1;durP2;ratioP2;P2;SDS_P1;SDS_P2;PMS_P1;PMS_P2;Temp;Humidity;BMP_temperature;BMP_pressure;BME280_temperature;BME280_humidity;BME280_pressure;Samples;Min_cycle;Max_cycle;Signal;HPM_P1;HPM_P2
2023/05/19 00:01:48;;;;;;;7.53;2.50;;;;;;;;;;4986988;28;20443;-51
2023/05/19 00:04:16;;;;;;;6.72;2.55;;;;;;;;;;4999551;28;20053;-51
2023/05/19 00:06:49;;;;;;;10.00;2.60;;;;;;;;;;4995555;28;20056;-51
2023/05/19 00:09:17;;;;;;;12.85;3.10;;;;;;;;;;5005079;28;20085;-54
2023/05/19 00:11:46;;;;;;;6.93;2.85;;;;;;;;;;4988792;28;20965;-53
2023/05/19 00:14:14;;;;;;;10.43;3.45;;;;;;;;;;4997472;28;20026;-52
2023/05/19 00:16:42;;;;;;;9.02;2.88;;;;;;;;;;4995284;28;20737;-48
2023/05/19 00:19:10;;;;;;;7.23;2.07;;;;;;;;;;4996978;28;20076;-51
2023/05/19 00:21:38;;;;;;;14.13;2.83;;;;;;;;;;4991635;28;20060;-51
2023/05/19 00:24:07;;;;;;;8.73;2.40;;;;;;;;;;4994401;28;20553;-54
2023/05/19 00:26:36;;;;;;;10.85;2.83;;;;;;;;;;5004127;28;20052;-52
2023/05/19 00:29:03;;;;;;;6.97;2.92;;;;;;;;;;4990578;28;20040;-49
2023/05/19 00:31:32;;;;;;;7.63;2.47;;;;;;;;;;4987055;28;20034;-48
2023/05/19 00:34:01;;;;;;;9.65;2.92;;;;;;;;;;4989123;28;20057;-48
2023/05/19 00:36:29;;;;;;;7.63;2.75;;;;;;;;;;4997457;28;20411;-53
2023/05/19 00:38:57;;;;;;;7.00;2.33;;;;;;;;;;4975945;28;20500;-52
2023/05/19 00:41:27;;;;;;;5.95;2.03;;;;;;;;;;4996408;28;20051;-51
2023/05/19 00:43:55;;;;;;;8.50;2.03;;;;;;;;;;4996623;28;20042;-51
2023/05/19 00:46:23;;;;;;;8.43;3.13;;;;;;;;;;5006164;28;20488;-50
2023/05/19 00:48:51;;;;;;;8.88;2.47;;;;;;;;;;4986810;28;20042;-52
2023/05/19 00:51:19;;;;;;;10.75;2.80;;;;;;;;;;5008494;28;20041;-49
2023/05/19 00:53:50;;;;;;;12.52;3.00;;;;;;;;;;4987078;28;20349;-50
2023/05/19 00:56:22;;;;;;;7.27;2.40;;;;;;;;;;4988033;28;20041;-51
2023/05/19 00:58:52;;;;;;;8.77;2.85;;;;;;;;;;4989583;28;20046;-50
2023/05/19 01:01:21;;;;;;;9.23;2.17;;;;;;;;;;4962994;28;20782;-50
2023/05/19 01:03:50;;;;;;;10.75;3.13;;;;;;;;;;5003039;28;20057;-49
2023/05/19 01:06:19;;;;;;;6.55;2.08;;;;;;;;;;4982881;28;20133;-51
2023/05/19 01:08:47;;;;;;;8.57;2.77;;;;;;;;;;4985822;28;20429;-49
2023/05/19 01:11:15;;;;;;;6.65;2.40;;;;;;;;;;5001159;28;20037;-51
2023/05/19 01:13:43;;;;;;;7.43;2.53;;;;;;;;;;4993611;28;20056;-51
2023/05/19 01:16:16;;;;;;;6.75;2.85;;;;;;;;;;4973919;28;20064;-48
2023/05/19 01:18:47;;;;;;;8.90;2.40;;;;;;;;;;4994532;28;20073;-49
2023/05/19 01:21:25;;;;;;;9.07;3.00;;;;;;;;;;4993402;28;20585;-48
2023/05/19 01:23:57;;;;;;;7.50;2.72;;;;;;;;;;4997785;28;20068;-49
2023/05/19 01:26:40;;;;;;;9.65;2.72;;;;;;;;;;4993300;28;20038;-52
2023/05/19 01:29:15;;;;;;;7.50;2.10;;;;;;;;;;4995679;28;20077;-51
2023/05/19 01:31:47;;;;;;;8.82;2.53;;;;;;;;;;4988567;28;20042;-49
2023/05/19 01:34:16;;;;;;;7.37;2.63;;;;;;;;;;4992984;28;20067;-50
2023/05/19 01:36:47;;;;;;;10.68;2.50;;;;;;;;;;4999143;28;20111;-48
2023/05/19 01:39:16;;;;;;;9.70;3.13;;;;;;;;;;4992854;28;20049;-49
2023/05/19 01:41:44;;;;;;;10.70;2.95;;;;;;;;;;4986880;28;20052;-51
2023/05/19 01:44:12;;;;;;;7.38;2.67;;;;;;;;;;4990156;28;20037;-50
2023/05/19 01:46:41;;;;;;;8.53;2.80;;;;;;;;;;4999175;28;20030;-52
2023/05/19 01:49:10;;;;;;;8.38;2.97;;;;;;;;;;4985071;28;20037;-50
2023/05/19 01:51:38;;;;;;;8.98;2.97;;;;;;;;;;4992290;28;20523;-50
2023/05/19 01:54:08;;;;;;;10.48;3.90;;;;;;;;;;4990622;28;20045;-48
2023/05/19 01:56:41;;;;;;;6.68;2.97;;;;;;;;;;4986557;28;20520;-50
2023/05/19 01:59:13;;;;;;;9.03;2.83;;;;;;;;;;4986497;28;20049;-51
2023/05/19 02:01:46;;;;;;;10.68;3.08;;;;;;;;;;4985016;28;20095;-52
2023/05/19 02:04:20;;;;;;;8.43;2.80;;;;;;;;;;5003319;28;20037;-52
2023/05/19 02:06:53;;;;;;;10.40;3.38;;;;;;;;;;4985771;28;20871;-51
2023/05/19 02:09:23;;;;;;;7.15;3.17;;;;;;;;;;4994294;28;20172;-50
2023/05/19 02:11:54;;;;;;;9.47;2.90;;;;;;;;;;5008900;28;20041;-48
2023/05/19 02:14:25;;;;;;;12.13;3.30;;;;;;;;;;4953894;28;20622;-52
2023/05/19 02:16:53;;;;;;;8.95;2.65;;;;;;;;;;4993893;28;20038;-49
2023/05/19 02:19:23;;;;;;;9.38;3.03;;;;;;;;;;5001057;28;20488;-50
2023/05/19 02:21:52;;;;;;;8.93;2.63;;;;;;;;;;4971315;28;20050;-47
2023/05/19 02:24:21;;;;;;;11.07;3.07;;;;;;;;;;4938262;28;20046;-52
2023/05/19 02:26:51;;;;;;;11.35;3.20;;;;;;;;;;4965462;28;20579;-49
2023/05/19 02:29:20;;;;;;;9.60;3.80;;;;;;;;;;4949791;28;20038;-49
2023/05/19 02:31:48;;;;;;;8.57;2.97;;;;;;;;;;4964487;28;20170;-52
2023/05/19 02:34:15;;;;;;;11.10;3.28;;;;;;;;;;4954154;28;20035;-53
2023/05/19 02:36:48;;;;;;;9.83;3.60;;;;;;;;;;4969046;28;20050;-53
2023/05/19 02:39:18;;;;;;;8.57;3.25;;;;;;;;;;4942146;28;20485;-49
2023/05/19 02:41:47;;;;;;;10.60;3.63;;;;;;;;;;4957539;28;20034;-48
2023/05/19 02:44:15;;;;;;;7.80;3.00;;;;;;;;;;4966839;28;20481;-48
2023/05/19 02:46:43;;;;;;;14.50;3.53;;;;;;;;;;4929092;28;20046;-49
2023/05/19 02:49:11;;;;;;;14.10;3.67;;;;;;;;;;4934211;28;20062;-51
2023/05/19 02:51:38;;;;;;;13.35;3.13;;;;;;;;;;4970827;28;20084;-50
2023/05/19 02:54:08;;;;;;;10.43;3.15;;;;;;;;;;4954775;28;20042;-48
2023/05/19 02:56:36;;;;;;;7.80;2.70;;;;;;;;;;4968219;28;20089;-50
2023/05/19 02:59:04;;;;;;;9.45;3.25;;;;;;;;;;4958675;28;20054;-52
2023/05/19 03:01:33;;;;;;;9.33;3.20;;;;;;;;;;4959093;28;20122;-52
2023/05/19 03:04:01;;;;;;;9.60;3.10;;;;;;;;;;4952537;28;20066;-51
2023/05/19 03:06:31;;;;;;;14.80;4.47;;;;;;;;;;4963992;28;20053;-50
2023/05/19 03:08:59;;;;;;;11.30;3.65;;;;;;;;;;4947578;28;20045;-51
2023/05/19 03:11:29;;;;;;;9.35;3.90;;;;;;;;;;4968452;28;20031;-51
2023/05/19 03:13:57;;;;;;;8.47;2.97;;;;;;;;;;4957626;28;20101;-50
2023/05/19 03:16:26;;;;;;;10.18;3.35;;;;;;;;;;4950600;28;20030;-53
2023/05/19 03:18:55;;;;;;;10.43;4.13;;;;;;;;;;4965874;28;20129;-52
2023/05/19 03:21:23;;;;;;;9.73;3.28;;;;;;;;;;4955541;28;20136;-49
2023/05/19 03:23:51;;;;;;;11.98;3.70;;;;;;;;;;5007780;28;20044;-54
2023/05/19 03:26:21;;;;;;;13.70;3.50;;;;;;;;;;4970492;28;20049;-50
2023/05/19 03:28:51;;;;;;;11.18;3.40;;;;;;;;;;4996135;28;20044;-50
2023/05/19 03:31:19;;;;;;;11.93;3.40;;;;;;;;;;5002274;28;20037;-53
2023/05/19 03:33:47;;;;;;;11.52;3.75;;;;;;;;;;4991440;28;20049;-50
2023/05/19 03:36:16;;;;;;;15.68;4.13;;;;;;;;;;4985434;28;20115;-48
2023/05/19 03:38:44;;;;;;;10.60;3.63;;;;;;;;;;4998342;28;20077;-50
2023/05/19 03:41:12;;;;;;;10.77;3.30;;;;;;;;;;4998152;28;20696;-51
2023/05/19 03:43:40;;;;;;;12.65;3.67;;;;;;;;;;5004601;28;20037;-48
2023/05/19 03:46:10;;;;;;;12.43;3.72;;;;;;;;;;4995760;28;20040;-50
2023/05/19 03:48:38;;;;;;;10.52;3.47;;;;;;;;;;4986765;28;20046;-54
2023/05/19 03:51:06;;;;;;;10.27;3.47;;;;;;;;;;4990224;28;20052;-50
2023/05/19 03:53:34;;;;;;;11.90;3.83;;;;;;;;;;4984720;28;20045;-48
2023/05/19 03:56:02;;;;;;;7.55;3.15;;;;;;;;;;4992606;28;20053;-50
2023/05/19 03:58:30;;;;;;;12.40;4.03;;;;;;;;;;4962953;28;20029;-50
2023/05/19 04:00:58;;;;;;;11.07;3.55;;;;;;;;;;4994327;28;20049;-49
2023/05/19 04:03:27;;;;;;;8.67;3.57;;;;;;;;;;4975625;28;20578;-53
2023/05/19 04:05:55;;;;;;;11.00;3.80;;;;;;;;;;4995030;28;20073;-48
2023/05/19 04:08:23;;;;;;;10.68;3.10;;;;;;;;;;4986498;28;20045;-47
2023/05/19 04:10:51;;;;;;;9.00;2.75;;;;;;;;;;5002875;28;20053;-51
2023/05/19 04:13:19;;;;;;;9.50;3.28;;;;;;;;;;4994970;28;20417;-48
2023/05/19 04:15:47;;;;;;;8.23;3.50;;;;;;;;;;4996083;28;20046;-53
2023/05/19 04:18:15;;;;;;;9.77;3.30;;;;;;;;;;4993895;28;20049;-48
2023/05/19 04:20:43;;;;;;;10.52;2.67;;;;;;;;;;4978109;28;20049;-50
2023/05/19 04:23:12;;;;;;;8.15;2.95;;;;;;;;;;4985493;28;20590;-50
2023/05/19 04:25:41;;;;;;;9.68;3.38;;;;;;;;;;4984670;28;20056;-52
2023/05/19 04:28:08;;;;;;;11.87;3.33;;;;;;;;;;4984274;28;20124;-52
2023/05/19 04:30:37;;;;;;;12.27;3.67;;;;;;;;;;4994319;28;20115;-48
2023/05/19 04:33:06;;;;;;;12.25;3.95;;;;;;;;;;4990451;28;20099;-49
2023/05/19 04:35:34;;;;;;;7.35;3.25;;;;;;;;;;4991267;28;20050;-47
2023/05/19 04:38:03;;;;;;;11.27;4.03;;;;;;;;;;4963085;28;20041;-51
2023/05/19 04:40:31;;;;;;;17.13;3.90;;;;;;;;;;4997952;28;20041;-48
2023/05/19 04:43:00;;;;;;;9.82;3.70;;;;;;;;;;4984578;28;20099;-53
2023/05/19 04:45:31;;;;;;;12.05;3.47;;;;;;;;;;4994112;28;20034;-50
2023/05/19 04:48:00;;;;;;;10.65;3.80;;;;;;;;;;5002458;28;20056;-53
2023/05/19 04:50:29;;;;;;;9.25;4.05;;;;;;;;;;4991403;28;20048;-50
2023/05/19 04:52:58;;;;;;;10.23;3.97;;;;;;;;;;4982477;28;20045;-49
2023/05/19 04:55:27;;;;;;;9.63;4.10;;;;;;;;;;4991577;28;20041;-51
2023/05/19 04:57:55;;;;;;;10.57;3.78;;;;;;;;;;4995879;28;20095;-50
2023/05/19 05:00:24;;;;;;;9.23;3.97;;;;;;;;;;4986552;28;20528;-53
2023/05/19 05:02:51;;;;;;;9.40;3.25;;;;;;;;;;5000227;28;20107;-49
2023/05/19 05:05:19;;;;;;;12.03;3.77;;;;;;;;;;4988213;28;20053;-52
2023/05/19 05:07:48;;;;;;;11.90;3.55;;;;;;;;;;4992454;28;20038;-51
2023/05/19 05:10:16;;;;;;;10.38;4.03;;;;;;;;;;4986216;28;20049;-50
2023/05/19 05:12:46;;;;;;;10.55;3.63;;;;;;;;;;4992276;28;20172;-48
2023/05/19 05:15:14;;;;;;;11.90;3.60;;;;;;;;;;4990442;28;20506;-51
2023/05/19 05:17:46;;;;;;;10.50;3.50;;;;;;;;;;4992679;28;20050;-51
2023/05/19 05:20:16;;;;;;;8.70;3.17;;;;;;;;;;4995754;28;20488;-51
2023/05/19 05:22:45;;;;;;;10.02;3.05;;;;;;;;;;4986979;28;20288;-51
2023/05/19 05:25:14;;;;;;;9.45;3.00;;;;;;;;;;5002314;28;20045;-50
2023/05/19 05:27:42;;;;;;;10.85;3.70;;;;;;;;;;4982607;28;20045;-53
2023/05/19 05:30:11;;;;;;;11.67;3.40;;;;;;;;;;4998495;28;20234;-52
2023/05/19 05:32:39;;;;;;;7.80;2.72;;;;;;;;;;4975133;28;20512;-49
2023/05/19 05:35:08;;;;;;;9.38;3.22;;;;;;;;;;4994087;28;20042;-50
2023/05/19 05:37:36;;;;;;;8.13;3.05;;;;;;;;;;4989669;28;20037;-47
2023/05/19 05:40:06;;;;;;;10.93;3.15;;;;;;;;;;4995183;28;20100;-49
2023/05/19 05:42:37;;;;;;;10.13;3.63;;;;;;;;;;4991899;28;20045;-53
2023/05/19 05:45:06;;;;;;;7.40;2.70;;;;;;;;;;4989906;28;20033;-50
2023/05/19 05:47:37;;;;;;;8.02;2.97;;;;;;;;;;4995246;28;20144;-52
2023/05/19 05:50:08;;;;;;;10.98;3.20;;;;;;;;;;4995357;28;20048;-53
2023/05/19 05:52:37;;;;;;;8.98;3.22;;;;;;;;;;4995748;28;20053;-51
2023/05/19 05:55:05;;;;;;;14.67;3.70;;;;;;;;;;4982385;28;20049;-50
2023/05/19 05:57:35;;;;;;;10.52;3.10;;;;;;;;;;4996580;28;20112;-51
2023/05/19 06:00:06;;;;;;;10.77;2.92;;;;;;;;;;4966351;28;20066;-52
2023/05/19 06:02:33;;;;;;;8.63;3.30;;;;;;;;;;4997708;28;20045;-49
2023/05/19 06:05:03;;;;;;;10.98;3.58;;;;;;;;;;4999906;28;20126;-50
2023/05/19 06:07:31;;;;;;;10.17;2.83;;;;;;;;;;5001226;28;20045;-48
2023/05/19 06:09:58;;;;;;;11.00;3.47;;;;;;;;;;4989486;28;20588;-51
2023/05/19 06:12:27;;;;;;;8.70;3.08;;;;;;;;;;5000701;28;20047;-51
2023/05/19 06:14:55;;;;;;;12.50;3.30;;;;;;;;;;4992420;28;20565;-48
2023/05/19 06:17:23;;;;;;;9.75;3.40;;;;;;;;;;5004438;28;21038;-51
2023/05/19 06:19:51;;;;;;;9.83;3.17;;;;;;;;;;4995052;28;20468;-49
2023/05/19 06:22:22;;;;;;;9.65;3.22;;;;;;;;;;5001772;28;20095;-50
2023/05/19 06:24:49;;;;;;;7.20;2.85;;;;;;;;;;4992735;28;20042;-51
2023/05/19 06:27:18;;;;;;;10.85;3.67;;;;;;;;;;4988164;28;20038;-49
2023/05/19 06:29:47;;;;;;;10.23;3.22;;;;;;;;;;5006090;28;20046;-49
2023/05/19 06:32:14;;;;;;;12.33;3.30;;;;;;;;;;4976891;28;20041;-51
2023/05/19 06:34:42;;;;;;;8.38;2.92;;;;;;;;;;4998214;28;20518;-52
2023/05/19 06:37:10;;;;;;;9.60;3.13;;;;;;;;;;4982780;28;20107;-48
2023/05/19 06:39:39;;;;;;;12.30;3.10;;;;;;;;;;4985362;28;20389;-53
2023/05/19 06:42:07;;;;;;;12.77;3.40;;;;;;;;;;4991559;28;20124;-48
2023/05/19 06:44:35;;;;;;;11.40;4.17;;;;;;;;;;4992504;28;20033;-49
2023/05/19 06:47:03;;;;;;;10.43;3.13;;;;;;;;;;4994756;28;20045;-50
2023/05/19 06:49:31;;;;;;;8.48;3.08;;;;;;;;;;4999561;28;20045;-50
2023/05/19 06:52:00;;;;;;;9.05;3.08;;;;;;;;;;4995864;28;20989;-51
2023/05/19 06:54:27;;;;;;;10.30;4.03;;;;;;;;;;5004137;28;20037;-51
2023/05/19 06:56:56;;;;;;;8.33;3.50;;;;;;;;;;4991402;28;20056;-51
2023/05/19 06:59:24;;;;;;;12.35;2.95;;;;;;;;;;4996504;28;20092;-51
2023/05/19 07:01:52;;;;;;;7.32;3.08;;;;;;;;;;4981604;28;20049;-49
2023/05/19 07:04:20;;;;;;;9.07;3.05;;;;;;;;;;4991060;28;20050;-52
2023/05/19 07:06:49;;;;;;;9.98;2.92;;;;;;;;;;4987895;28;20117;-51
2023/05/19 07:09:17;;;;;;;9.90;3.37;;;;;;;;;;4991869;28;20452;-52
2023/05/19 07:11:45;;;;;;;10.55;3.63;;;;;;;;;;4979349;28;20161;-52
2023/05/19 07:14:15;;;;;;;10.95;3.80;;;;;;;;;;4998643;28;20045;-53
2023/05/19 07:16:42;;;;;;;10.25;3.55;;;;;;;;;;4985604;28;20042;-53
2023/05/19 07:19:10;;;;;;;8.82;3.22;;;;;;;;;;5001553;28;20103;-53
2023/05/19 07:21:39;;;;;;;9.57;3.43;;;;;;;;;;4994022;28;20061;-53
2023/05/19 07:24:06;;;;;;;10.85;3.50;;;;;;;;;;4997855;28;20359;-50
2023/05/19 07:26:34;;;;;;;9.98;3.05;;;;;;;;;;4995856;28;20118;-51
2023/05/19 07:29:02;;;;;;;9.20;3.30;;;;;;;;;;4985793;28;20443;-51
2023/05/19 07:31:31;;;;;;;11.50;3.28;;;;;;;;;;4998640;28;20058;-53
2023/05/19 07:33:59;;;;;;;8.17;3.10;;;;;;;;;;4999011;28;20064;-52
2023/05/19 07:36:27;;;;;;;8.75;3.17;;;;;;;;;;4970896;28;20041;-53
2023/05/19 07:38:55;;;;;;;10.50;3.75;;;;;;;;;;5003098;28;20125;-50
2023/05/19 07:41:26;;;;;;;9.20;3.42;;;;;;;;;;4999030;28;20435;-52
2023/05/19 07:43:55;;;;;;;9.50;3.20;;;;;;;;;;4991852;28;20037;-50
2023/05/19 07:46:22;;;;;;;11.17;3.80;;;;;;;;;;5004218;28;20104;-52
2023/05/19 07:48:51;;;;;;;10.50;3.10;;;;;;;;;;4982654;28;20034;-52
2023/05/19 07:51:20;;;;;;;13.70;3.50;;;;;;;;;;4998305;28;20057;-50
2023/05/19 07:53:47;;;;;;;11.30;3.47;;;;;;;;;;4986298;28;20438;-52
2023/05/19 07:56:15;;;;;;;10.43;3.05;;;;;;;;;;4998741;28;20495;-51
2023/05/19 07:58:43;;;;;;;12.37;3.57;;;;;;;;;;4984788;28;22362;-51
2023/05/19 08:01:11;;;;;;;8.68;2.85;;;;;;;;;;5001083;28;20037;-56
2023/05/19 08:03:39;;;;;;;7.32;2.85;;;;;;;;;;4973988;28;20101;-51
2023/05/19 08:06:08;;;;;;;11.15;3.13;;;;;;;;;;4994820;28;20317;-51
2023/05/19 08:08:36;;;;;;;9.45;3.28;;;;;;;;;;4981470;28;20030;-51
2023/05/19 08:11:05;;;;;;;9.67;3.07;;;;;;;;;;5003075;28;20095;-52
2023/05/19 08:13:34;;;;;;;7.13;2.85;;;;;;;;;;4991416;28;20108;-53
2023/05/19 08:16:01;;;;;;;7.57;3.25;;;;;;;;;;5005515;28;20338;-49
2023/05/19 08:18:29;;;;;;;8.00;2.92;;;;;;;;;;4997794;28;20864;-49
2023/05/19 08:20:58;;;;;;;8.27;2.95;;;;;;;;;;4986065;28;20056;-54
2023/05/19 08:23:27;;;;;;;18.40;3.77;;;;;;;;;;4985898;28;20512;-49
2023/05/19 08:25:56;;;;;;;8.95;3.15;;;;;;;;;;4981736;28;20038;-50
2023/05/19 08:28:24;;;;;;;9.90;4.20;;;;;;;;;;4982211;28;20404;-53
2023/05/19 08:30:52;;;;;;;8.70;3.08;;;;;;;;;;4980017;28;20033;-51
2023/05/19 08:33:20;;;;;;;11.52;3.85;;;;;;;;;;4985269;28;20038;-54
2023/05/19 08:35:50;;;;;;;9.57;3.60;;;;;;;;;;4977372;28;20103;-54
2023/05/19 08:38:17;;;;;;;12.85;4.20;;;;;;;;;;4986051;28;21005;-50
2023/05/19 08:40:47;;;;;;;11.02;3.75;;;;;;;;;;4967399;28;20050;-49
2023/05/19 08:43:15;;;;;;;13.57;4.22;;;;;;;;;;4984660;28;20053;-48
2023/05/19 08:45:43;;;;;;;9.50;3.83;;;;;;;;;;4978474;28;20048;-53
2023/05/19 08:48:12;;;;;;;10.50;4.10;;;;;;;;;;4983753;28;20060;-50
2023/05/19 08:50:42;;;;;;;10.85;3.95;;;;;;;;;;4981292;28;20048;-49
2023/05/19 08:53:12;;;;;;;11.82;4.32;;;;;;;;;;4988480;28;20088;-51
2023/05/19 08:56:02;;;;;;;10.48;3.78;;;;;;;;;;4995712;28;20129;-54
2023/05/19 08:58:30;;;;;;;15.30;4.47;;;;;;;;;;4967003;28;20425;-53
2023/05/19 09:00:59;;;;;;;11.70;3.90;;;;;;;;;;4978227;28;20674;-54
2023/05/19 09:03:27;;;;;;;12.63;4.53;;;;;;;;;;4987464;28;20598;-52
2023/05/19 09:05:55;;;;;;;13.45;4.20;;;;;;;;;;4994854;28;20057;-52
2023/05/19 09:08:23;;;;;;;11.25;4.50;;;;;;;;;;4992792;28;20618;-53
2023/05/19 09:10:51;;;;;;;11.05;4.40;;;;;;;;;;4993780;28;20042;-50
2023/05/19 09:13:20;;;;;;;11.77;4.10;;;;;;;;;;4996806;28;20037;-52
2023/05/19 09:15:50;;;;;;;9.60;3.72;;;;;;;;;;4989905;28;20045;-51
2023/05/19 09:18:18;;;;;;;13.35;4.70;;;;;;;;;;4977354;28;20335;-53
2023/05/19 09:20:46;;;;;;;10.63;4.10;;;;;;;;;;5002199;28;20053;-54
2023/05/19 09:23:14;;;;;;;9.63;3.88;;;;;;;;;;4977654;28;20058;-53
2023/05/19 09:25:47;;;;;;;12.40;4.03;;;;;;;;;;4990173;28;20113;-49
2023/05/19 09:28:15;;;;;;;14.85;4.70;;;;;;;;;;4992820;28;20116;-50
2023/05/19 09:30:44;;;;;;;11.75;3.90;;;;;;;;;;4984537;28;20205;-54
2023/05/19 09:33:16;;;;;;;13.27;3.80;;;;;;;;;;4995352;28;20040;-48
2023/05/19 09:35:47;;;;;;;10.02;3.92;;;;;;;;;;5002499;28;20132;-54
2023/05/19 09:38:17;;;;;;;11.53;3.90;;;;;;;;;;5002148;28;20048;-53
2023/05/19 09:40:48;;;;;;;10.20;3.90;;;;;;;;;;4985629;28;20042;-54
2023/05/19 09:43:16;;;;;;;10.88;3.90;;;;;;;;;;5002390;28;20100;-52
2023/05/19 09:45:45;;;;;;;10.50;4.43;;;;;;;;;;4992191;28;20045;-50
2023/05/19 09:48:14;;;;;;;12.38;4.57;;;;;;;;;;4992175;28;20393;-52
2023/05/19 09:50:44;;;;;;;12.80;4.10;;;;;;;;;;4981102;28;20099;-49
2023/05/19 09:53:18;;;;;;;12.02;4.30;;;;;;;;;;4987607;28;20034;-52
2023/05/19 09:55:48;;;;;;;10.80;4.43;;;;;;;;;;4960048;28;20657;-54
2023/05/19 09:58:16;;;;;;;9.88;3.83;;;;;;;;;;4987717;28;20042;-50
2023/05/19 10:00:46;;;;;;;9.90;4.18;;;;;;;;;;4966304;28;20318;-51
2023/05/19 10:03:16;;;;;;;9.30;3.80;;;;;;;;;;4996268;28;20308;-53
2023/05/19 10:05:44;;;;;;;8.50;3.80;;;;;;;;;;4990753;28;20046;-51
2023/05/19 10:08:12;;;;;;;14.07;3.78;;;;;;;;;;4986214;28;20052;-48
2023/05/19 10:10:41;;;;;;;12.52;4.43;;;;;;;;;;5003340;28;20037;-53
2023/05/19 10:13:09;;;;;;;10.13;4.38;;;;;;;;;;4997578;28;20099;-51
2023/05/19 10:15:36;;;;;;;10.03;3.57;;;;;;;;;;4997504;28;20041;-54
2023/05/19 10:18:26;;;;;;;11.48;4.05;;;;;;;;;;4994383;28;20038;-54
2023/05/19 10:20:54;;;;;;;8.77;3.65;;;;;;;;;;4966929;28;20045;-50
2023/05/19 10:23:22;;;;;;;11.35;3.00;;;;;;;;;;5005195;28;20076;-54
2023/05/19 10:25:51;;;;;;;10.75;3.67;;;;;;;;;;4981756;28;20059;-49
2023/05/19 10:28:23;;;;;;;14.20;4.00;;;;;;;;;;5010216;28;20049;-54
2023/05/19 10:30:54;;;;;;;9.48;3.88;;;;;;;;;;4996451;28;20041;-53
2023/05/19 10:33:27;;;;;;;9.23;4.03;;;;;;;;;;4996543;28;20037;-51
2023/05/19 10:36:07;;;;;;;8.63;2.83;;;;;;;;;;5001113;28;20046;-51
2023/05/19 10:38:41;;;;;;;10.25;4.18;;;;;;;;;;4996260;28;20030;-51
2023/05/19 10:41:12;;;;;;;11.40;3.73;;;;;;;;;;4961425;28;20033;-53
2023/05/19 10:43:52;;;;;;;9.90;4.00;;;;;;;;;;4997203;28;20154;-51
2023/05/19 10:46:23;;;;;;;11.77;4.10;;;;;;;;;;5003312;28;20047;-52
2023/05/19 10:48:51;;;;;;;14.15;4.00;;;;;;;;;;4987237;28;20132;-52
2023/05/19 10:51:20;;;;;;;11.52;4.40;;;;;;;;;;5002664;28;20047;-52
2023/05/19 10:53:49;;;;;;;12.07;4.47;;;;;;;;;;4981520;28;20405;-52
2023/05/19 10:56:33;;;;;;;9.80;4.13;;;;;;;;;;5003257;28;20042;-54
2023/05/19 10:59:02;;;;;;;11.15;4.55;;;;;;;;;;4973853;28;20041;-53
2023/05/19 11:01:31;;;;;;;10.73;4.13;;;;;;;;;;4985220;28;20034;-50
2023/05/19 11:04:04;;;;;;;11.35;3.58;;;;;;;;;;4958991;28;20041;-52
2023/05/19 11:06:36;;;;;;;9.80;4.23;;;;;;;;;;4972328;28;20052;-53
2023/05/19 11:09:11;;;;;;;11.40;4.45;;;;;;;;;;4989177;28;20057;-52
2023/05/19 11:11:46;;;;;;;9.75;4.93;;;;;;;;;;4984031;28;20456;-54
2023/05/19 11:14:15;;;;;;;11.07;3.83;;;;;;;;;;4993166;28;20041;-51
2023/05/19 11:16:46;;;;;;;12.98;4.90;;;;;;;;;;4975430;28;21422;-50
2023/05/19 11:19:18;;;;;;;12.70;4.77;;;;;;;;;;4989700;28;20044;-53
2023/05/19 11:21:53;;;;;;;11.00;3.88;;;;;;;;;;4986487;28;20077;-53
2023/05/19 11:24:34;;;;;;;11.55;4.70;;;;;;;;;;4986198;28;21002;-55
2023/05/19 11:27:24;;;;;;;10.45;4.28;;;;;;;;;;4979728;28;20131;-52
2023/05/19 11:29:53;;;;;;;11.65;4.90;;;;;;;;;;4988569;28;20030;-56
2023/05/19 11:32:21;;;;;;;10.87;4.60;;;;;;;;;;4976874;28;20625;-55
2023/05/19 11:34:49;;;;;;;10.95;4.68;;;;;;;;;;4970758;28;20050;-53
2023/05/19 11:37:18;;;;;;;11.50;5.45;;;;;;;;;;4980152;28;20037;-53
2023/05/19 11:39:48;;;;;;;11.50;5.15;;;;;;;;;;4982505;28;20413;-52
2023/05/19 11:42:16;;;;;;;13.43;5.35;;;;;;;;;;4989931;28;20045;-54
2023/05/19 11:44:46;;;;;;;14.77;6.03;;;;;;;;;;4982897;28;20567;-55
2023/05/19 11:47:14;;;;;;;14.18;6.28;;;;;;;;;;4980355;28;20092;-53
2023/05/19 11:49:43;;;;;;;13.13;4.97;;;;;;;;;;4991784;28;20064;-53
2023/05/19 11:52:10;;;;;;;14.00;5.93;;;;;;;;;;4982866;28;21398;-52
2023/05/19 11:54:41;;;;;;;16.77;6.10;;;;;;;;;;4971646;28;20512;-49
2023/05/19 11:57:08;;;;;;;12.90;5.27;;;;;;;;;;4969031;28;20052;-52
2023/05/19 11:59:38;;;;;;;14.98;4.95;;;;;;;;;;4987902;28;20055;-52
2023/05/19 12:02:15;;;;;;;10.85;4.13;;;;;;;;;;4982621;28;20412;-53
2023/05/19 12:04:43;;;;;;;10.57;4.80;;;;;;;;;;4991299;28;20419;-54
2023/05/19 12:07:16;;;;;;;15.15;5.03;;;;;;;;;;4978723;28;20439;-49
2023/05/19 12:09:46;;;;;;;12.00;5.50;;;;;;;;;;4987577;28;20047;-50
2023/05/19 12:12:15;;;;;;;10.40;4.78;;;;;;;;;;4980482;28;20060;-53
2023/05/19 12:14:43;;;;;;;8.60;3.33;;;;;;;;;;4979345;28;20045;-51
2023/05/19 12:17:12;;;;;;;9.50;3.25;;;;;;;;;;4977095;28;20087;-53
2023/05/19 12:19:40;;;;;;;11.32;4.60;;;;;;;;;;4982198;28;20859;-55
2023/05/19 12:22:08;;;;;;;11.97;4.10;;;;;;;;;;4979707;28;20057;-53
2023/05/19 12:24:36;;;;;;;10.25;4.00;;;;;;;;;;4985682;28;20045;-52
2023/05/19 12:27:17;;;;;;;13.60;5.30;;;;;;;;;;4973728;28;20053;-49
2023/05/19 12:29:48;;;;;;;10.27;3.63;;;;;;;;;;4992706;28;20038;-49
2023/05/19 12:32:17;;;;;;;11.40;4.50;;;;;;;;;;4972410;28;20514;-52
2023/05/19 12:34:45;;;;;;;9.00;3.80;;;;;;;;;;4980979;28;20594;-54
2023/05/19 12:37:13;;;;;;;12.43;4.18;;;;;;;;;;4967748;28;20064;-53
2023/05/19 12:39:41;;;;;;;10.25;3.67;;;;;;;;;;4975980;28;20042;-53
2023/05/19 12:42:13;;;;;;;9.32;3.00;;;;;;;;;;4989939;28;20053;-54
2023/05/19 12:44:45;;;;;;;12.60;4.55;;;;;;;;;;4967992;28;20048;-54
2023/05/19 12:47:15;;;;;;;11.50;4.57;;;;;;;;;;4977195;28;20049;-51
2023/05/19 12:49:56;;;;;;;10.00;3.95;;;;;;;;;;4988823;28;20932;-49
2023/05/19 12:52:24;;;;;;;13.73;4.95;;;;;;;;;;4964967;28;20107;-51
2023/05/19 12:54:58;;;;;;;13.07;4.70;;;;;;;;;;4984857;28;20037;-52
2023/05/19 12:57:30;;;;;;;10.90;4.53;;;;;;;;;;4970434;28;20127;-53
2023/05/19 13:00:05;;;;;;;10.27;4.30;;;;;;;;;;4977890;28;20053;-51
2023/05/19 13:02:34;;;;;;;11.55;4.20;;;;;;;;;;4980291;28;20591;-51
2023/05/19 13:05:02;;;;;;;11.48;5.25;;;;;;;;;;4980617;28;20152;-51
2023/05/19 13:07:30;;;;;;;10.27;4.93;;;;;;;;;;4984516;28;20048;-53
2023/05/19 13:09:58;;;;;;;15.80;4.15;;;;;;;;;;4982072;28;20053;-49
2023/05/19 13:12:27;;;;;;;10.53;4.67;;;;;;;;;;4977922;28;20052;-51
2023/05/19 13:14:55;;;;;;;13.27;5.50;;;;;;;;;;4982834;28;20037;-50
2023/05/19 13:17:23;;;;;;;15.40;5.43;;;;;;;;;;4955333;28;20513;-54
2023/05/19 13:19:51;;;;;;;12.90;6.13;;;;;;;;;;4987384;28;20709;-53
2023/05/19 13:22:19;;;;;;;15.70;6.60;;;;;;;;;;4982298;28;20046;-52
2023/05/19 13:24:47;;;;;;;13.80;5.70;;;;;;;;;;5000617;28;20057;-55
2023/05/19 13:27:15;;;;;;;13.48;6.50;;;;;;;;;;4980506;28;20474;-53
2023/05/19 13:29:44;;;;;;;18.27;5.97;;;;;;;;;;5001620;28;20053;-53
2023/05/19 13:32:13;;;;;;;12.05;5.78;;;;;;;;;;4982527;28;20046;-54
2023/05/19 13:34:41;;;;;;;13.25;6.43;;;;;;;;;;4990086;28;20092;-52
2023/05/19 13:37:10;;;;;;;15.87;7.20;;;;;;;;;;4989702;28;20046;-54
2023/05/19 13:39:39;;;;;;;15.73;5.97;;;;;;;;;;4987132;28;20719;-53
2023/05/19 13:42:07;;;;;;;11.43;6.00;;;;;;;;;;4965820;28;20593;-50
2023/05/19 13:44:34;;;;;;;13.82;5.95;;;;;;;;;;4980435;28;20092;-52
2023/05/19 13:47:04;;;;;;;12.18;6.30;;;;;;;;;;4971790;28;20049;-54
2023/05/19 13:49:32;;;;;;;14.13;4.30;;;;;;;;;;5002658;28;20042;-52
2023/05/19 13:52:00;;;;;;;10.65;3.95;;;;;;;;;;4975849;28;20042;-53
2023/05/19 13:54:28;;;;;;;10.95;5.00;;;;;;;;;;4993155;28;20084;-52
2023/05/19 13:56:57;;;;;;;10.35;4.30;;;;;;;;;;4988584;28;20291;-50
2023/05/19 13:59:25;;;;;;;12.00;4.13;;;;;;;;;;5001790;28;20041;-53
2023/05/19 14:01:55;;;;;;;8.90;3.70;;;;;;;;;;4979586;28;20065;-52
2023/05/19 14:04:24;;;;;;;8.60;3.05;;;;;;;;;;4977101;28;20111;-48
2023/05/19 14:06:52;;;;;;;7.53;3.00;;;;;;;;;;4990394;28;20049;-48
2023/05/19 14:09:20;;;;;;;12.13;3.83;;;;;;;;;;4965891;28;20564;-49
2023/05/19 14:11:48;;;;;;;10.75;3.78;;;;;;;;;;4994529;28;20575;-47
2023/05/19 14:14:16;;;;;;;8.73;3.13;;;;;;;;;;4991834;28;20048;-51
2023/05/19 14:16:44;;;;;;;9.02;4.25;;;;;;;;;;4997238;28;20038;-51
2023/05/19 14:19:13;;;;;;;9.77;4.13;;;;;;;;;;4967292;28;20563;-50
2023/05/19 14:21:42;;;;;;;9.70;3.83;;;;;;;;;;4991903;28;20041;-49
2023/05/19 14:24:10;;;;;;;11.25;3.92;;;;;;;;;;4991589;28;20038;-50
2023/05/19 14:26:38;;;;;;;8.90;3.80;;;;;;;;;;4995896;28;20045;-51
2023/05/19 14:29:05;;;;;;;15.90;4.65;;;;;;;;;;4985248;28;20041;-50
2023/05/19 14:31:34;;;;;;;10.77;4.45;;;;;;;;;;4989450;28;20042;-47
2023/05/19 14:34:02;;;;;;;15.40;4.57;;;;;;;;;;4998393;28;20168;-52
2023/05/19 14:36:31;;;;;;;10.70;4.93;;;;;;;;;;4985503;28;20037;-50
2023/05/19 14:39:01;;;;;;;12.60;4.30;;;;;;;;;;4976970;28;20049;-47
2023/05/19 14:41:29;;;;;;;12.48;4.18;;;;;;;;;;4998765;28;20124;-50
2023/05/19 14:43:58;;;;;;;12.75;4.70;;;;;;;;;;4995946;28;20041;-51
2023/05/19 14:46:25;;;;;;;11.50;4.70;;;;;;;;;;5013590;28;20107;-49
2023/05/19 14:48:57;;;;;;;12.13;4.57;;;;;;;;;;4983798;28;20037;-49